Time;durP1;ratioP1;P1;durP2;ratioP2;P2;SDS_P1;SDS_P2;PMS_P1;PMS_P2;Temp;Humidity;BMP_temperature;BMP_pressure;BME280_temperature;BME280_humidity;BME280_pressure;Samples;Min_cycle;Max_cycle;Signal;HPM_P1;HPM_P2
2022/03/23 00:01:25;;;;;;;14.98;12.88;;;;;;;8.66;39.08;102820.47;4991809;28;20580;-83
2022/03/23 00:03:52;;;;;;;19.00;13.82;;;;;;;8.43;39.15;102790.63;4989261;28;20274;-84
2022/03/23 00:06:19;;;;;;;15.68;13.07;;;;;;;8.66;38.90;102821.34;4988020;28;20120;-84
2022/03/23 00:08:46;;;;;;;18.98;12.00;;;;;;;8.12;39.13;102746.09;4989794;28;20054;-84
2022/03/23 00:11:12;;;;;;;12.80;11.45;;;;;;;8.91;39.23;102889.09;4995668;28;20046;-84
2022/03/23 00:13:39;;;;;;;13.98;11.75;;;;;;;8.85;38.46;102873.47;4998230;28;20054;-84
2022/03/23 00:16:07;;;;;;;13.35;12.00;;;;;;;8.27;39.21;102782.47;4996383;28;20136;-83
2022/03/23 00:18:33;;;;;;;15.68;13.30;;;;;;;8.38;39.29;102797.03;4987389;28;20847;-83
2022/03/23 00:21:00;;;;;;;15.65;12.13;;;;;;;8.84;39.54;102882.38;5003049;28;20381;-84
2022/03/23 00:23:27;;;;;;;20.98;12.73;;;;;;;8.12;39.45;102760.19;5007039;28;20056;-84
2022/03/23 00:25:54;;;;;;;14.90;12.65;;;;;;;8.85;38.82;102884.06;5008079;28;20052;-84
2022/03/23 00:28:20;;;;;;;16.83;11.65;;;;;;;8.29;38.59;102785.91;5002171;28;20269;-84
2022/03/23 00:30:50;;;;;;;16.40;12.13;;;;;;;8.69;39.02;102858.28;4987862;28;20073;-81
2022/03/23 00:33:27;;;;;;;15.38;12.52;;;;;;;8.60;39.35;102841.97;4988377;28;20074;-84
2022/03/23 00:35:57;;;;;;;13.32;12.02;;;;;;;8.49;39.73;102829.19;4989613;28;20475;-84
2022/03/23 00:38:24;;;;;;;16.40;12.50;;;;;;;8.65;39.74;102866.44;4987767;28;20046;-84
2022/03/23 00:40:52;;;;;;;14.13;12.63;;;;;;;8.60;39.31;102866.66;4990481;28;20147;-84
2022/03/23 00:43:18;;;;;;;15.60;11.98;;;;;;;8.55;39.54;102858.03;4987188;28;20464;-83
2022/03/23 00:45:45;;;;;;;18.13;11.70;;;;;;;8.61;40.23;102867.50;4996592;28;20440;-84
2022/03/23 00:48:12;;;;;;;14.05;12.07;;;;;;;8.34;40.24;102831.53;5008824;28;20100;-82
2022/03/23 00:50:38;;;;;;;13.63;12.23;;;;;;;8.28;40.07;102820.41;5008391;28;20092;-82
2022/03/23 00:53:06;;;;;;;18.48;12.95;;;;;;;8.47;39.38;102860.16;5006638;28;20133;-83
2022/03/23 00:55:32;;;;;;;17.33;11.93;;;;;;;7.49;39.94;102694.16;5007011;28;20075;-83
2022/03/23 00:57:59;;;;;;;15.40;11.20;;;;;;;8.27;39.98;102830.09;5006626;28;20049;-82
2022/03/23 01:00:26;;;;;;;13.57;11.52;;;;;;;8.44;39.37;102857.66;5007103;28;20106;-82
2022/03/23 01:02:53;;;;;;;15.50;12.70;;;;;;;8.45;39.73;102848.81;4994912;28;20056;-84
2022/03/23 01:05:22;;;;;;;13.98;12.50;;;;;;;8.57;39.77;102858.84;5002520;28;20073;-84
2022/03/23 01:07:49;;;;;;;14.50;12.95;;;;;;;8.00;39.00;102763.38;4994492;28;20054;-84
2022/03/23 01:10:16;;;;;;;13.77;11.98;;;;;;;8.07;39.33;102764.81;4991160;28;20052;-84
2022/03/23 01:12:44;;;;;;;13.20;11.82;;;;;;;8.55;39.21;102852.75;5006538;28;20073;-83
2022/03/23 01:15:14;;;;;;;15.25;12.10;;;;;;;8.61;39.71;102844.53;4999574;28;20056;-82
2022/03/23 01:17:41;;;;;;;14.25;11.90;;;;;;;8.61;38.88;102849.81;4987277;28;20058;-82
2022/03/23 01:20:10;;;;;;;14.27;12.35;;;;;;;8.56;39.23;102835.94;4988654;28;20054;-84
2022/03/23 01:22:38;;;;;;;13.88;12.45;;;;;;;8.53;39.31;102833.44;4988466;28;20050;-83
2022/03/23 01:25:08;;;;;;;14.23;12.70;;;;;;;8.59;39.12;102842.88;5013578;28;20070;-82
2022/03/23 01:27:36;;;;;;;13.70;12.27;;;;;;;8.26;39.07;102788.69;5017705;28;20042;-84
2022/03/23 01:30:05;;;;;;;13.88;12.45;;;;;;;8.49;39.28;102818.59;5016127;28;20085;-83
2022/03/23 01:32:33;;;;;;;17.85;13.95;;;;;;;8.48;39.81;102806.31;5007286;28;20138;-82
2022/03/23 01:35:00;;;;;;;16.42;13.70;;;;;;;8.59;39.79;102833.13;5006653;28;20140;-84
2022/03/23 01:37:26;;;;;;;13.80;12.30;;;;;;;8.54;39.44;102824.53;5006457;28;20145;-82
2022/03/23 01:39:53;;;;;;;13.68;12.20;;;;;;;7.80;40.05;102703.44;5005526;28;20076;-82
2022/03/23 01:42:20;;;;;;;16.83;13.15;;;;;;;8.31;39.66;102784.06;4987776;28;20046;-83
2022/03/23 01:44:46;;;;;;;15.18;13.48;;;;;;;8.68;39.75;102843.31;4986852;28;20129;-84
2022/03/23 01:47:15;;;;;;;17.48;13.55;;;;;;;8.54;40.26;102828.06;4987167;28;20081;-84
2022/03/23 01:50:03;;;;;;;13.75;12.35;;;;;;;8.48;39.78;102815.09;4987916;28;20132;-84
2022/03/23 01:52:32;;;;;;;14.40;12.90;;;;;;;8.63;40.30;102841.81;4990057;28;20056;-83
2022/03/23 01:55:02;;;;;;;15.40;12.65;;;;;;;8.22;39.61;102762.44;4991887;28;20047;-83
2022/03/23 01:57:29;;;;;;;16.75;12.60;;;;;;;8.58;39.97;102822.63;4986663;28;20053;-84
2022/03/23 01:59:56;;;;;;;17.60;12.82;;;;;;;8.56;40.65;102831.47;4986168;28;20055;-83
2022/03/23 02:02:23;;;;;;;14.95;12.00;;;;;;;8.43;40.65;102819.75;4985919;28;20090;-83
2022/03/23 02:04:50;;;;;;;15.88;13.48;;;;;;;8.19;40.55;102795.19;4987428;28;20582;-83
2022/03/23 02:07:17;;;;;;;16.63;12.73;;;;;;;8.33;40.71;102823.69;4987492;28;20145;-83
2022/03/23 02:09:43;;;;;;;16.92;13.45;;;;;;;8.32;40.31;102828.09;4987053;28;20669;-83
2022/03/23 02:12:11;;;;;;;14.38;12.70;;;;;;;7.91;39.62;102762.00;4992464;28;20074;-83
2022/03/23 02:14:38;;;;;;;14.45;12.90;;;;;;;7.00;39.85;102609.06;5011520;28;20102;-84
2022/03/23 02:17:05;;;;;;;14.32;12.77;;;;;;;8.23;40.64;102831.19;5028596;28;20031;-84
2022/03/23 02:19:32;;;;;;;16.60;13.15;;;;;;;8.17;40.66;102828.78;5024547;28;20041;-83
2022/03/23 02:21:59;;;;;;;18.38;13.27;;;;;;;8.09;40.57;102828.25;5014538;28;20144;-83
2022/03/23 02:24:27;;;;;;;14.55;12.55;;;;;;;8.12;40.87;102831.63;5009119;28;20351;-83
2022/03/23 02:26:55;;;;;;;15.77;14.07;;;;;;;8.14;41.52;102834.22;5009308;28;20475;-81
2022/03/23 02:29:25;;;;;;;17.60;13.98;;;;;;;7.29;40.63;102675.66;5008949;28;20156;-83
2022/03/23 02:31:52;;;;;;;16.85;12.75;;;;;;;8.20;41.37;102828.63;5009580;28;20247;-82
2022/03/23 02:34:19;;;;;;;16.70;13.38;;;;;;;8.12;41.06;102804.31;5010390;28;20145;-83
2022/03/23 02:36:46;;;;;;;15.70;13.45;;;;;;;8.23;41.49;102839.13;5008776;28;20045;-84
2022/03/23 02:39:13;;;;;;;17.02;14.23;;;;;;;7.88;41.10;102769.19;5008923;28;20077;-83
2022/03/23 02:41:40;;;;;;;17.42;13.88;;;;;;;8.23;41.07;102827.66;5009761;28;20426;-82
2022/03/23 02:44:07;;;;;;;15.88;13.48;;;;;;;7.42;40.76;102690.06;5008634;28;20566;-83
2022/03/23 02:46:35;;;;;;;19.30;14.05;;;;;;;7.76;40.54;102769.72;5008491;28;20042;-84
2022/03/23 02:49:05;;;;;;;17.15;13.30;;;;;;;8.01;41.07;102823.31;5008513;28;20045;-82
2022/03/23 02:51:32;;;;;;;14.88;13.38;;;;;;;7.86;41.71;102816.88;5001726;28;20455;-83
2022/03/23 03:02:36;;;;;;;18.52;13.73;;;;;;;7.83;42.00;102824.94;5009392;28;20065;-84
2022/03/23 03:05:05;;;;;;;16.48;13.45;;;;;;;7.82;42.13;102817.94;5008311;28;20120;-83
2022/03/23 03:08:44;;;;;;;15.65;13.48;;;;;;;7.58;42.69;102781.94;4995697;28;20058;-84
2022/03/23 03:10:21;;;;;;;14.35;12.90;;;;;;;7.20;42.50;102707.75;5007243;28;20137;-83
2022/03/23 03:12:48;;;;;;;17.33;13.13;;;;;;;7.18;42.47;102728.06;4990029;28;20054;-83
2022/03/23 03:15:15;;;;;;;16.95;14.30;;;;;;;7.78;41.93;102810.19;4994778;28;20125;-83
2022/03/23 03:17:46;;;;;;;17.02;13.75;;;;;;;7.83;42.23;102822.28;4999594;28;20054;-81
2022/03/23 03:20:14;;;;;;;19.27;13.70;;;;;;;7.79;41.55;102812.78;5006184;28;20041;-83
2022/03/23 03:22:43;;;;;;;19.10;14.95;;;;;;;7.72;41.96;102806.03;5007809;28;20530;-83
2022/03/23 03:25:15;;;;;;;17.73;14.20;;;;;;;7.28;41.83;102726.75;5002742;28;20093;-83
2022/03/23 03:27:43;;;;;;;17.13;14.35;;;;;;;7.82;42.43;102817.94;4989555;28;20050;-84
2022/03/23 03:30:12;;;;;;;19.58;14.65;;;;;;;7.84;42.67;102805.50;4988065;28;20050;-83
2022/03/23 03:32:40;;;;;;;21.30;14.77;;;;;;;7.89;41.67;102800.88;4989737;28;20053;-84
2022/03/23 03:35:12;;;;;;;22.70;14.93;;;;;;;7.65;42.16;102757.81;5006571;28;20046;-84
2022/03/23 03:37:39;;;;;;;21.50;14.68;;;;;;;8.02;41.72;102808.28;4991398;28;20056;-83
2022/03/23 03:40:08;;;;;;;26.52;15.20;;;;;;;7.57;41.52;102722.06;5007744;28;20053;-83
2022/03/23 03:42:35;;;;;;;18.40;14.27;;;;;;;7.91;41.18;102782.28;5008121;28;20046;-84
2022/03/23 03:45:05;;;;;;;21.02;13.38;;;;;;;8.05;41.60;102794.91;5009745;28;20133;-83
2022/03/23 03:47:31;;;;;;;18.17;13.55;;;;;;;8.11;41.17;102797.31;5007411;28;20042;-83
2022/03/23 03:49:58;;;;;;;19.77;14.60;;;;;;;8.16;41.49;102811.19;5008880;28;20149;-84
2022/03/23 03:52:25;;;;;;;18.65;13.70;;;;;;;8.10;41.70;102806.16;5007215;28;20346;-83
2022/03/23 03:54:51;;;;;;;15.55;13.95;;;;;;;7.91;41.41;102782.28;5007282;28;20050;-83
2022/03/23 03:57:18;;;;;;;17.05;14.23;;;;;;;7.81;41.06;102741.28;4997353;28;20130;-83
2022/03/23 03:59:44;;;;;;;17.63;14.48;;;;;;;8.10;41.47;102803.50;5005995;28;20054;-83
2022/03/23 04:02:11;;;;;;;17.02;13.98;;;;;;;8.12;40.75;102799.03;4992547;28;20062;-83
2022/03/23 04:04:38;;;;;;;16.95;13.27;;;;;;;7.83;41.19;102753.53;4995100;28;20073;-84
2022/03/23 04:07:05;;;;;;;14.90;13.15;;;;;;;8.12;41.21;102799.03;5008765;28;20073;-83
2022/03/23 04:09:31;;;;;;;18.73;14.32;;;;;;;7.77;40.38;102735.28;5023436;28;20484;-84
2022/03/23 04:11:58;;;;;;;17.02;14.15;;;;;;;7.83;40.68;102761.47;5007175;28;20069;-82
2022/03/23 04:14:24;;;;;;;18.02;14.13;;;;;;;8.01;40.77;102783.63;4997465;28;20501;-83
2022/03/23 04:16:51;;;;;;;16.15;13.88;;;;;;;8.02;40.86;102801.22;4996265;28;20492;-83
2022/03/23 04:19:17;;;;;;;17.58;14.13;;;;;;;7.97;41.57;102787.31;4997930;28;20061;-83
2022/03/23 04:21:45;;;;;;;16.48;14.57;;;;;;;7.78;41.11;102762.59;4990878;28;20369;-83
2022/03/23 04:24:12;;;;;;;19.85;14.52;;;;;;;8.06;41.13;102802.81;4988293;28;20133;-84
2022/03/23 04:26:38;;;;;;;15.02;13.50;;;;;;;8.00;41.22;102789.81;4987826;28;20230;-83
2022/03/23 04:29:06;;;;;;;15.55;13.93;;;;;;;7.90;41.23;102783.22;4987103;28;20411;-82
2022/03/23 04:31:32;;;;;;;16.70;13.90;;;;;;;7.45;40.89;102703.16;4997542;28;20042;-83
2022/03/23 04:33:59;;;;;;;14.80;13.30;;;;;;;6.63;41.45;102586.81;4995814;28;20077;-84
2022/03/23 04:36:26;;;;;;;14.98;13.43;;;;;;;7.92;40.67;102808.69;4998387;28;20058;-83
2022/03/23 04:38:52;;;;;;;16.85;13.95;;;;;;;7.83;41.31;102808.22;5008023;28;20072;-83
2022/03/23 04:41:19;;;;;;;16.73;14.35;;;;;;;7.73;41.67;102786.59;4993007;28;20576;-82
2022/03/23 04:43:46;;;;;;;16.42;14.50;;;;;;;7.60;41.39;102770.38;4987117;28;20054;-83
2022/03/23 04:46:15;;;;;;;15.65;14.07;;;;;;;7.77;41.57;102805.81;4988073;28;20526;-83
2022/03/23 04:48:42;;;;;;;19.55;14.48;;;;;;;7.49;40.99;102760.25;4992310;28;20108;-84
2022/03/23 04:51:08;;;;;;;16.80;13.70;;;;;;;7.83;41.53;102814.34;5006242;28;20137;-83
2022/03/23 04:53:35;;;;;;;16.20;14.43;;;;;;;7.64;41.09;102787.81;5007910;28;20042;-84
2022/03/23 04:56:02;;;;;;;17.73;14.18;;;;;;;7.79;41.32;102818.06;5006565;28;20067;-84
2022/03/23 04:58:29;;;;;;;18.02;14.93;;;;;;;7.77;40.87;102825.19;5007525;28;20050;-83
2022/03/23 05:00:57;;;;;;;28.73;19.50;;;;;;;7.46;41.38;102768.31;5006380;28;20125;-84
2022/03/23 05:03:25;;;;;;;17.10;15.35;;;;;;;7.47;41.87;102775.28;5005687;28;20149;-83
2022/03/23 05:05:52;;;;;;;19.92;14.45;;;;;;;7.56;41.73;102797.00;4999811;28;20041;-83
2022/03/23 05:08:18;;;;;;;18.98;15.00;;;;;;;7.60;41.01;102791.53;4986952;28;20297;-84
2022/03/23 05:10:45;;;;;;;17.58;14.07;;;;;;;7.73;40.77;102817.47;4987173;28;20082;-82
2022/03/23 05:13:12;;;;;;;19.95;14.68;;;;;;;7.04;40.91;102692.53;4997072;28;20056;-83
2022/03/23 05:15:38;;;;;;;20.65;14.93;;;;;;;7.47;41.30;102762.06;4996271;28;20137;-83
2022/03/23 05:18:06;;;;;;;19.98;15.05;;;;;;;7.80;41.43;102809.19;4986267;28;20054;-83
2022/03/23 05:20:33;;;;;;;18.70;13.98;;;;;;;7.55;41.87;102764.44;5001166;28;20571;-81
2022/03/23 05:23:00;;;;;;;17.02;14.90;;;;;;;7.32;42.03;102738.94;5005944;28;20326;-83
2022/03/23 05:25:27;;;;;;;19.52;14.40;;;;;;;7.83;42.03;102824.06;5006128;28;20054;-83
2022/03/23 05:27:53;;;;;;;19.17;14.60;;;;;;;7.43;42.50;102771.09;5001247;28;20500;-83
2022/03/23 05:30:20;;;;;;;19.83;13.48;;;;;;;7.61;42.58;102808.25;4987265;28;20101;-83
2022/03/23 05:32:46;;;;;;;19.88;15.10;;;;;;;7.57;42.32;102793.41;4989282;28;20089;-82
2022/03/23 05:35:13;;;;;;;15.27;13.68;;;;;;;7.70;42.19;102819.28;4992231;28;20054;-83
2022/03/23 05:37:40;;;;;;;22.40;16.50;;;;;;;7.84;41.86;102828.44;4988684;28;20054;-83
2022/03/23 05:40:10;;;;;;;18.38;15.32;;;;;;;7.80;42.00;102797.75;4987384;28;20058;-82
2022/03/23 05:42:37;;;;;;;20.55;14.25;;;;;;;7.92;42.06;102819.25;4987388;28;20081;-85
2022/03/23 05:45:04;;;;;;;17.90;14.65;;;;;;;7.95;41.62;102825.34;4986498;28;20039;-84
2022/03/23 05:47:31;;;;;;;21.73;15.32;;;;;;;7.73;41.42;102791.88;4989143;28;20198;-86
2022/03/23 05:49:57;;;;;;;18.85;15.48;;;;;;;7.96;41.40;102813.81;4992824;28;20185;-83
2022/03/23 05:52:24;;;;;;;16.23;14.52;;;;;;;8.02;42.15;102827.66;4991382;28;20050;-83
2022/03/23 05:54:51;;;;;;;16.35;13.73;;;;;;;7.85;41.99;102791.34;4988978;28;20046;-82
2022/03/23 05:57:17;;;;;;;16.05;14.00;;;;;;;8.09;42.11;102830.91;4988238;28;20492;-83
2022/03/23 05:59:44;;;;;;;24.05;15.40;;;;;;;7.79;41.84;102775.75;4987464;28;20528;-83
2022/03/23 06:02:11;;;;;;;17.20;14.25;;;;;;;7.83;41.98;102774.69;4988582;28;20145;-82
2022/03/23 06:04:37;;;;;;;18.60;15.45;;;;;;;8.07;42.40;102806.31;4988808;28;20549;-81
2022/03/23 06:07:04;;;;;;;17.73;15.38;;;;;;;8.27;41.98;102822.16;4987313;28;20074;-83
2022/03/23 06:09:31;;;;;;;19.80;15.63;;;;;;;8.23;40.78;102780.91;4987302;28;20523;-84
2022/03/23 06:11:58;;;;;;;21.77;15.15;;;;;;;8.25;40.77;102779.06;4990001;28;20507;-83
2022/03/23 06:14:24;;;;;;;20.17;14.70;;;;;;;8.48;41.04;102808.94;4991001;28;20146;-84
2022/03/23 06:16:52;;;;;;;19.15;15.18;;;;;;;8.53;40.86;102818.38;4989748;28;20051;-82
2022/03/23 06:19:19;;;;;;;19.65;15.77;;;;;;;8.52;40.91;102814.03;4987673;28;20070;-83
2022/03/23 06:21:45;;;;;;;22.02;15.93;;;;;;;8.56;41.65;102817.38;4987482;28;20137;-82
2022/03/23 06:24:12;;;;;;;18.77;14.20;;;;;;;8.40;41.04;102781.94;4987980;28;20137;-83
2022/03/23 06:26:38;;;;;;;17.08;13.88;;;;;;;8.75;40.53;102823.56;4987634;28;20054;-84
2022/03/23 06:29:05;;;;;;;19.90;14.57;;;;;;;7.38;40.42;102580.16;4991816;28;20471;-83
2022/03/23 06:31:36;;;;;;;25.48;15.43;;;;;;;8.80;40.48;102819.88;4987544;28;20069;-83
2022/03/23 06:34:04;;;;;;;21.65;14.75;;;;;;;8.75;41.11;102796.22;4988657;28;20101;-84
2022/03/23 06:36:32;;;;;;;23.13;15.85;;;;;;;8.90;40.30;102814.06;4985917;28;20633;-83
2022/03/23 06:38:59;;;;;;;19.92;15.23;;;;;;;8.99;40.28;102823.38;4987580;28;20054;-83
2022/03/23 06:41:25;;;;;;;17.48;14.55;;;;;;;9.32;39.46;102846.53;4983470;28;20308;-84
2022/03/23 06:43:52;;;;;;;18.08;14.73;;;;;;;9.04;37.92;102772.81;4967872;28;20050;-83
2022/03/23 06:46:19;;;;;;;19.15;15.18;;;;;;;9.52;38.01;102827.91;4967817;28;20446;-83
2022/03/23 06:48:47;;;;;;;21.02;14.63;;;;;;;9.66;37.76;102847.56;4968186;28;20524;-82
2022/03/23 06:51:15;;;;;;;18.88;14.82;;;;;;;9.67;37.27;102825.44;4987263;28;20556;-83
2022/03/23 06:53:42;;;;;;;17.20;14.02;;;;;;;9.78;36.39;102828.38;4988723;28;20142;-85
2022/03/23 06:56:09;;;;;;;17.48;14.18;;;;;;;9.98;36.32;102838.88;4987911;28;20129;-84
2022/03/23 06:58:36;;;;;;;18.38;15.10;;;;;;;10.01;36.18;102821.94;4987648;28;20412;-84
2022/03/23 07:01:03;;;;;;;15.50;13.85;;;;;;;10.01;36.14;102820.13;4988100;28;20504;-83
2022/03/23 07:03:30;;;;;;;16.13;14.02;;;;;;;10.26;36.38;102842.75;4988588;28;20461;-83
2022/03/23 07:05:57;;;;;;;14.88;12.60;;;;;;;10.18;35.43;102818.41;4998915;28;20053;-83
2022/03/23 07:11:10;;;;;;;18.20;14.73;;;;;;;10.55;35.26;102853.66;4999245;28;20077;-81
2022/03/23 07:13:37;;;;;;;15.23;13.68;;;;;;;10.50;35.52;102839.78;4989252;28;20058;-82
2022/03/23 07:16:04;;;;;;;17.75;13.05;;;;;;;10.59;35.52;102844.59;4987518;28;20058;-83
2022/03/23 07:18:31;;;;;;;16.55;14.25;;;;;;;10.63;35.45;102855.00;4990292;28;20224;-84
2022/03/23 07:20:58;;;;;;;22.92;15.45;;;;;;;9.88;34.94;102712.91;4989353;28;20060;-84
2022/03/23 07:23:25;;;;;;;15.70;14.10;;;;;;;10.61;34.87;102822.34;4988611;28;20050;-84
2022/03/23 07:25:51;;;;;;;19.73;13.35;;;;;;;10.89;34.47;102856.22;4989165;28;20100;-84
2022/03/23 07:28:18;;;;;;;19.02;14.20;;;;;;;10.86;34.66;102853.75;4989378;28;20058;-82
2022/03/23 07:30:45;;;;;;;16.77;13.77;;;;;;;10.66;34.72;102816.78;4988955;28;20085;-84
2022/03/23 07:33:11;;;;;;;16.02;14.43;;;;;;;10.58;34.49;102787.09;4988735;28;20054;-82
2022/03/23 07:35:40;;;;;;;15.57;13.18;;;;;;;10.77;34.49;102827.66;4988294;28;20053;-81
2022/03/23 07:38:07;;;;;;;16.23;13.45;;;;;;;11.04;34.15;102843.03;4988536;28;20153;-82
2022/03/23 07:40:34;;;;;;;14.85;12.73;;;;;;;11.16;33.70;102853.00;4988234;28;20129;-81
2022/03/23 07:43:00;;;;;;;15.20;13.60;;;;;;;10.96;33.70;102816.03;4988104;28;20061;-82
2022/03/23 07:45:30;;;;;;;16.70;14.57;;;;;;;11.10;34.25;102842.72;4987269;28;20133;-83
2022/03/23 07:47:57;;;;;;;15.77;13.60;;;;;;;11.28;33.81;102857.63;4987410;28;20424;-83
2022/03/23 07:50:28;;;;;;;18.55;13.82;;;;;;;11.22;33.82;102826.06;4997469;28;20098;-82
2022/03/23 07:52:56;;;;;;;16.92;13.73;;;;;;;11.03;33.98;102796.16;4981945;28;20731;-82
2022/03/23 07:55:23;;;;;;;20.98;13.82;;;;;;;11.34;33.29;102830.69;4986855;28;20046;-81
2022/03/23 07:57:52;;;;;;;18.70;13.88;;;;;;;11.32;32.95;102807.78;4999111;28;20057;-82
2022/03/23 08:00:20;;;;;;;16.20;13.27;;;;;;;11.14;32.80;102775.16;5006762;28;20136;-83
2022/03/23 08:02:47;;;;;;;19.08;14.32;;;;;;;11.64;32.93;102845.84;5007685;28;20068;-81
2022/03/23 08:05:14;;;;;;;18.15;14.10;;;;;;;11.65;32.84;102850.22;5019703;28;20078;-83
2022/03/23 08:07:40;;;;;;;21.42;14.13;;;;;;;11.64;32.59;102835.19;4987091;28;20592;-82
2022/03/23 08:10:08;;;;;;;19.88;13.85;;;;;;;11.82;32.52;102856.34;4986196;28;20171;-82
2022/03/23 08:12:35;;;;;;;18.92;13.75;;;;;;;11.23;31.39;102734.72;4985910;28;20054;-82
2022/03/23 08:15:02;;;;;;;18.85;13.77;;;;;;;11.92;32.05;102847.78;4985574;28;20141;-83
2022/03/23 08:17:30;;;;;;;16.73;13.40;;;;;;;11.41;32.09;102743.44;4989704;28;20062;-83
2022/03/23 08:22:42;;;;;;;14.98;13.40;;;;;;;11.89;31.78;102841.78;4990934;28;20367;-83
2022/03/23 08:25:09;;;;;;;26.42;16.42;;;;;;;11.93;31.90;102843.31;4991669;28;20068;-82
2022/03/23 08:27:35;;;;;;;18.13;15.20;;;;;;;11.84;32.46;102806.56;4987830;28;20042;-82
2022/03/23 08:30:02;;;;;;;18.80;15.20;;;;;;;12.09;31.97;102844.13;4988322;28;20073;-84
2022/03/23 08:32:29;;;;;;;16.52;14.80;;;;;;;12.09;32.58;102848.59;4988118;28;20489;-83
2022/03/23 08:34:56;;;;;;;21.45;15.52;;;;;;;12.14;32.46;102847.38;4988441;28;20156;-84
2022/03/23 08:37:22;;;;;;;19.45;15.75;;;;;;;12.19;32.75;102845.28;4987153;28;20054;-83
2022/03/23 08:39:49;;;;;;;17.83;15.38;;;;;;;11.64;33.01;102759.84;4987754;28;20073;-83
2022/03/23 08:42:16;;;;;;;19.55;16.90;;;;;;;12.02;33.32;102813.50;4987413;28;20154;-82
2022/03/23 08:44:45;;;;;;;18.88;16.50;;;;;;;12.23;33.39;102851.25;4987157;28;20105;-84
2022/03/23 08:47:12;;;;;;;18.13;16.17;;;;;;;12.22;32.40;102844.25;4987118;28;20053;-85
2022/03/23 08:49:39;;;;;;;19.15;16.40;;;;;;;12.24;32.65;102836.16;5004263;28;20046;-84
2022/03/23 08:52:06;;;;;;;19.90;17.85;;;;;;;12.11;31.79;102780.13;4987576;28;20137;-84
2022/03/23 08:54:33;;;;;;;18.40;16.50;;;;;;;11.90;31.42;102742.38;4989033;28;20145;-83
2022/03/23 08:57:00;;;;;;;24.73;17.38;;;;;;;12.70;31.02;102844.00;4987598;28;20046;-84
2022/03/23 08:59:26;;;;;;;18.50;16.60;;;;;;;12.65;30.85;102836.28;4987612;28;20363;-82
2022/03/23 09:01:53;;;;;;;17.20;15.43;;;;;;;12.79;31.10;102854.94;4987325;28;20385;-83
2022/03/23 09:04:21;;;;;;;17.08;15.27;;;;;;;12.65;30.60;102830.13;4989075;28;20046;-83
2022/03/23 09:06:48;;;;;;;19.77;16.50;;;;;;;12.80;31.32;102837.13;4988457;28;20078;-84
2022/03/23 09:09:15;;;;;;;19.25;15.65;;;;;;;13.06;30.71;102859.50;4987599;28;20046;-85
2022/03/23 09:11:43;;;;;;;19.63;15.80;;;;;;;12.28;30.89;102725.81;4987528;28;20062;-84
2022/03/23 09:14:11;;;;;;;26.63;15.88;;;;;;;13.10;30.34;102822.81;4987260;28;20061;-83
2022/03/23 09:16:39;;;;;;;19.08;14.82;;;;;;;12.54;30.33;102733.03;4991495;28;20054;-83
2022/03/23 09:19:06;;;;;;;17.42;14.73;;;;;;;13.16;31.03;102835.75;5000277;28;20113;-83
2022/03/23 09:21:33;;;;;;;19.52;15.15;;;;;;;13.27;31.19;102846.59;5008020;28;20085;-84
2022/03/23 09:24:00;;;;;;;17.45;15.57;;;;;;;12.51;31.31;102703.94;5005851;28;20501;-84
2022/03/23 09:26:26;;;;;;;16.77;14.25;;;;;;;13.56;30.39;102841.19;4974034;28;20104;-84
2022/03/23 09:28:53;;;;;;;18.05;16.15;;;;;;;12.87;30.23;102673.19;4992599;28;20488;-84
2022/03/23 09:31:19;;;;;;;18.92;15.73;;;;;;;13.99;30.00;102831.16;4992996;28;20101;-84
2022/03/23 09:33:48;;;;;;;16.92;15.23;;;;;;;13.04;29.06;102640.94;4991284;28;20377;-83
2022/03/23 09:39:01;;;;;;;18.67;16.70;;;;;;;13.93;28.69;102745.25;4992161;28;20050;-84
2022/03/23 09:41:31;;;;;;;18.80;16.00;;;;;;;13.84;29.57;102714.72;4991052;28;20066;-85
2022/03/23 09:43:58;;;;;;;17.50;15.80;;;;;;;14.40;28.86;102795.38;4992416;28;20508;-83
2022/03/23 09:46:25;;;;;;;17.45;15.70;;;;;;;14.89;29.29;102826.66;4992068;28;20141;-83
2022/03/23 09:48:51;;;;;;;21.00;15.70;;;;;;;14.89;28.90;102794.56;4992703;28;20137;-84
2022/03/23 09:51:21;;;;;;;18.40;16.50;;;;;;;15.07;29.49;102808.44;4991136;28;20050;-83
2022/03/23 09:53:48;;;;;;;16.88;15.20;;;;;;;14.97;28.87;102761.91;4992031;28;20078;-83
2022/03/23 09:56:15;;;;;;;20.20;15.68;;;;;;;15.50;28.32;102813.25;5000629;28;20104;-85
2022/03/23 09:58:42;;;;;;;17.90;15.80;;;;;;;15.53;28.07;102805.00;5024186;28;20397;-85
2022/03/23 10:01:29;;;;;;;17.38;15.57;;;;;;;15.62;27.12;102794.59;5021362;28;20061;-83
2022/03/23 10:04:34;;;;;;;20.23;15.63;;;;;;;15.95;27.35;102815.31;5008623;28;20140;-84
2022/03/23 10:07:49;;;;;;;17.45;15.65;;;;;;;16.11;25.54;102809.59;4979453;28;20050;-85
2022/03/23 10:10:19;;;;;;;18.17;16.13;;;;;;;15.73;25.99;102714.34;5011098;28;20508;-84
2022/03/23 10:13:10;;;;;;;17.38;15.57;;;;;;;16.39;26.29;102809.16;4995644;28;20062;-84
2022/03/23 10:16:16;;;;;;;19.73;16.43;;;;;;;16.58;26.27;102802.34;4991168;28;20136;-83
2022/03/23 10:18:53;;;;;;;17.58;15.75;;;;;;;16.82;25.62;102804.88;4996936;28;20663;-84
2022/03/23 10:21:22;;;;;;;18.92;15.60;;;;;;;16.61;24.74;102759.19;4993703;28;20204;-84
2022/03/23 10:23:59;;;;;;;16.77;15.00;;;;;;;16.99;24.79;102804.41;4993213;28;20085;-83
2022/03/23 10:26:33;;;;;;;15.52;13.85;;;;;;;16.23;23.36;102658.56;5009872;28;20057;-84
2022/03/23 10:29:00;;;;;;;19.55;15.75;;;;;;;15.87;24.40;102588.19;5010319;28;20255;-84
2022/03/23 10:31:29;;;;;;;17.90;16.00;;;;;;;16.69;24.87;102703.09;5011244;28;20495;-84
2022/03/23 10:34:10;;;;;;;18.40;15.05;;;;;;;17.44;23.72;102788.13;4994888;28;20058;-83
2022/03/23 10:36:43;;;;;;;18.23;16.45;;;;;;;17.46;24.12;102793.41;4992802;28;20322;-85
2022/03/23 10:39:16;;;;;;;18.10;16.20;;;;;;;17.34;24.12;102756.84;4996365;28;20063;-84
2022/03/23 10:41:43;;;;;;;17.95;15.02;;;;;;;16.82;24.01;102639.47;4998650;28;20183;-85
2022/03/23 10:44:17;;;;;;;17.80;14.25;;;;;;;17.76;24.37;102767.59;4993673;28;20288;-84
2022/03/23 10:46:44;;;;;;;17.23;14.20;;;;;;;17.80;24.20;102743.06;4990034;28;20137;-84
2022/03/23 10:49:13;;;;;;;15.55;13.95;;;;;;;17.57;23.35;102669.78;4990147;28;20050;-84
2022/03/23 10:51:42;;;;;;;15.52;12.45;;;;;;;18.20;23.49;102734.22;5009401;28;20054;-84
2022/03/23 10:54:18;;;;;;;14.40;12.88;;;;;;;18.15;22.23;102698.81;5009793;28;20049;-84
2022/03/23 10:56:45;;;;;;;15.50;13.63;;;;;;;18.13;22.51;102684.66;5010151;28;20186;-84
2022/03/23 10:59:26;;;;;;;14.07;12.10;;;;;;;17.41;21.68;102522.59;5011065;28;20132;-83
2022/03/23 11:02:10;;;;;;;14.05;12.52;;;;;;;18.21;21.85;102633.78;5013058;28;20058;-85
2022/03/23 11:04:56;;;;;;;12.52;11.23;;;;;;;18.47;20.50;102671.78;5010390;28;20231;-84
2022/03/23 11:07:35;;;;;;;10.88;9.80;;;;;;;17.94;19.73;102567.22;5009383;28;20050;-83
2022/03/23 11:15:49;;;;;;;18.38;14.48;;;;;;;19.50;21.17;102718.88;5010895;28;20061;-85
2022/03/23 11:18:17;;;;;;;15.30;13.75;;;;;;;19.25;21.69;102671.84;5010682;28;20451;-84
2022/03/23 11:20:51;;;;;;;14.27;12.20;;;;;;;19.71;20.42;102742.13;5010514;28;20082;-84
2022/03/23 11:23:33;;;;;;;13.77;12.38;;;;;;;19.72;20.35;102739.28;5008419;28;20096;-84
2022/03/23 11:26:02;;;;;;;13.23;11.85;;;;;;;19.82;20.30;102729.34;4990840;28;20141;-84
2022/03/23 11:28:34;;;;;;;14.18;12.10;;;;;;;20.06;20.14;102730.69;4988717;28;20563;-83
2022/03/23 11:31:06;;;;;;;13.45;12.27;;;;;;;19.76;19.72;102648.25;4990325;28;20061;-85
2022/03/23 11:33:34;;;;;;;15.23;13.70;;;;;;;20.11;20.31;102701.44;4989385;28;20061;-84
2022/03/23 11:36:12;;;;;;;14.05;12.23;;;;;;;19.96;20.09;102660.63;4989965;28;20466;-84
2022/03/23 11:38:39;;;;;;;15.15;12.50;;;;;;;20.44;20.76;102707.25;4989463;28;20050;-81
2022/03/23 11:41:09;;;;;;;13.93;12.45;;;;;;;20.34;20.38;102669.53;4972670;28;20093;-84
2022/03/23 11:43:39;;;;;;;15.32;13.50;;;;;;;19.79;20.09;102559.84;4988663;28;20048;-83